createdAt,value
2022-12-22T00:00:13.578Z,9.35
2022-12-22T00:01:53.258Z,9.33
2022-12-22T00:03:32.982Z,9.33
2022-12-22T00:05:12.754Z,9.31
2022-12-22T00:06:52.549Z,9.31
2022-12-22T00:08:32.301Z,9.3
2022-12-22T00:10:12.118Z,9.29
2022-12-22T00:11:51.839Z,9.26
2022-12-22T00:13:31.681Z,9.26
2022-12-22T00:15:11.362Z,9.27
2022-12-22T00:16:51.125Z,9.25
2022-12-22T00:18:30.984Z,9.24
2022-12-22T00:20:10.746Z,9.22
2022-12-22T00:21:50.435Z,9.22
2022-12-22T00:23:30.205Z,9.22
2022-12-22T00:25:09.948Z,9.18
2022-12-22T00:26:49.730Z,9.18
2022-12-22T00:28:29.499Z,9.18
2022-12-22T00:30:09.268Z,9.18
2022-12-22T00:31:49.061Z,9.14
2022-12-22T00:33:28.812Z,9.16
2022-12-22T00:35:08.561Z,9.14
2022-12-22T00:36:48.324Z,9.13
2022-12-22T00:38:28.099Z,9.13
2022-12-22T00:40:07.861Z,9.13
2022-12-22T00:41:47.624Z,9.12
2022-12-22T00:43:27.397Z,9.1
2022-12-22T00:45:07.187Z,9.09
2022-12-22T00:46:46.950Z,9.1
2022-12-22T00:48:26.698Z,9.07
2022-12-22T00:50:06.534Z,9.08
2022-12-22T00:51:46.239Z,9.08
2022-12-22T00:53:25.999Z,9.08
2022-12-22T00:55:05.769Z,9.04
2022-12-22T00:56:45.552Z,9.06
2022-12-22T00:58:25.314Z,9.03
2022-12-22T01:00:05.087Z,9.03
2022-12-22T01:01:44.881Z,9.04
2022-12-22T01:03:24.605Z,9.01
2022-12-22T01:05:04.366Z,9
2022-12-22T01:06:44.151Z,9.01
2022-12-22T01:08:23.916Z,8.99
2022-12-22T01:10:03.686Z,8.99
2022-12-22T01:11:43.478Z,8.99
2022-12-22T01:13:23.222Z,8.97
2022-12-22T01:15:02.981Z,8.97
2022-12-22T01:16:42.743Z,8.96
2022-12-22T01:18:22.525Z,8.95
2022-12-22T01:20:02.304Z,8.96
2022-12-22T01:21:42.056Z,8.93
2022-12-22T01:23:21.824Z,8.95
2022-12-22T01:25:01.584Z,8.93
2022-12-22T01:26:41.344Z,8.93
2022-12-22T01:28:21.126Z,8.92
2022-12-22T01:30:00.894Z,8.92
2022-12-22T01:31:40.650Z,8.89
2022-12-22T01:33:20.424Z,8.91
2022-12-22T01:35:00.217Z,8.91
2022-12-22T01:36:39.949Z,8.91
2022-12-22T01:38:19.727Z,8.89
2022-12-22T01:39:59.498Z,8.89
2022-12-22T01:41:39.294Z,8.87
2022-12-22T01:43:19.037Z,8.85
2022-12-22T01:44:58.779Z,8.88
2022-12-22T01:46:38.554Z,8.85
2022-12-22T01:48:18.324Z,8.84
2022-12-22T01:49:58.111Z,8.85
2022-12-22T01:51:37.928Z,8.85
2022-12-22T01:53:17.644Z,8.85
2022-12-22T01:54:57.399Z,8.82
2022-12-22T01:56:37.167Z,8.82
2022-12-22T01:58:16.942Z,8.82
2022-12-22T01:59:56.754Z,8.81
2022-12-22T02:01:36.480Z,8.83
2022-12-22T02:03:16.230Z,8.8
2022-12-22T02:04:55.991Z,8.8
2022-12-22T02:06:35.759Z,8.8
2022-12-22T02:08:15.534Z,8.8
2022-12-22T02:09:55.301Z,8.8
2022-12-22T02:11:35.065Z,8.81
2022-12-22T02:13:14.848Z,8.79
2022-12-22T02:14:54.602Z,8.8
2022-12-22T02:16:34.386Z,8.79
2022-12-22T02:18:14.131Z,8.78
2022-12-22T02:19:53.910Z,8.77
2022-12-22T02:21:33.682Z,8.78
2022-12-22T02:23:13.437Z,8.75
2022-12-22T02:24:53.248Z,8.77
2022-12-22T02:26:32.976Z,8.75
2022-12-22T02:28:12.736Z,8.76
2022-12-22T02:29:52.525Z,8.75
2022-12-22T02:31:32.268Z,8.74
2022-12-22T02:33:12.038Z,8.74
2022-12-22T02:34:51.805Z,8.72
2022-12-22T02:36:31.580Z,8.72
2022-12-22T02:38:11.339Z,8.76
2022-12-22T02:39:51.194Z,8.75
2022-12-22T02:41:30.895Z,8.72
2022-12-22T02:43:10.653Z,8.74
2022-12-22T02:44:50.418Z,8.71
2022-12-22T02:46:30.182Z,8.71
2022-12-22T02:48:09.948Z,8.72
2022-12-22T02:49:49.721Z,8.72
2022-12-22T02:51:29.492Z,8.72
2022-12-22T02:53:09.273Z,8.71
2022-12-22T02:54:49.014Z,8.71
2022-12-22T02:56:28.793Z,8.7
2022-12-22T02:58:08.566Z,8.72
2022-12-22T02:59:48.313Z,8.7
2022-12-22T03:01:28.080Z,8.7
2022-12-22T03:03:07.863Z,8.71
2022-12-22T03:04:47.624Z,8.68
2022-12-22T03:06:27.400Z,8.68
2022-12-22T03:08:07.151Z,8.7
2022-12-22T03:09:46.912Z,8.68
2022-12-22T03:11:26.687Z,8.68
2022-12-22T03:13:06.468Z,8.7
2022-12-22T03:14:46.246Z,8.71
2022-12-22T03:16:26.039Z,8.7
2022-12-22T03:18:05.759Z,8.71
2022-12-22T03:19:45.528Z,8.68
2022-12-22T03:21:25.286Z,8.71
2022-12-22T03:23:05.098Z,8.7
2022-12-22T03:24:44.859Z,8.7
2022-12-22T03:26:24.598Z,8.71
2022-12-22T03:28:04.370Z,8.68
2022-12-22T03:29:44.137Z,8.67
2022-12-22T03:31:23.909Z,8.68
2022-12-22T03:33:03.685Z,8.67
2022-12-22T03:34:43.436Z,8.7
2022-12-22T03:36:23.202Z,8.68
2022-12-22T03:38:02.970Z,8.68
2022-12-22T03:39:42.730Z,8.68
2022-12-22T03:41:22.499Z,8.7
2022-12-22T03:43:02.265Z,8.68
2022-12-22T03:44:42.038Z,8.67
2022-12-22T03:46:21.791Z,8.68
2022-12-22T03:48:01.570Z,8.68
2022-12-22T03:49:41.346Z,8.68
2022-12-22T03:51:21.107Z,8.68
2022-12-22T03:53:00.875Z,8.68
2022-12-22T03:54:40.648Z,8.7
2022-12-22T03:56:20.399Z,8.71
2022-12-22T03:58:00.165Z,8.7
2022-12-22T03:59:39.941Z,8.68
2022-12-22T04:01:19.720Z,8.7
2022-12-22T04:02:59.479Z,8.68
2022-12-22T04:04:39.265Z,8.68
2022-12-22T04:06:18.999Z,8.7
2022-12-22T04:07:58.780Z,8.7
2022-12-22T04:09:38.578Z,8.71
2022-12-22T04:11:18.374Z,8.71
2022-12-22T04:12:58.163Z,8.71
2022-12-22T04:14:37.841Z,8.7
2022-12-22T04:16:17.615Z,8.72
2022-12-22T04:17:57.386Z,8.71
2022-12-22T04:19:37.156Z,8.71
2022-12-22T04:21:16.926Z,8.72
2022-12-22T04:22:56.685Z,8.72
2022-12-22T04:24:36.464Z,8.71
2022-12-22T04:26:16.223Z,8.72
2022-12-22T04:27:55.970Z,8.71
2022-12-22T04:29:35.777Z,8.72
2022-12-22T04:31:15.526Z,8.74
2022-12-22T04:32:55.281Z,8.71
2022-12-22T04:34:35.069Z,8.71
2022-12-22T04:36:14.809Z,8.72
2022-12-22T04:37:54.587Z,8.74
2022-12-22T04:39:34.348Z,8.74
2022-12-22T04:41:14.116Z,8.74
2022-12-22T04:42:53.888Z,8.72
2022-12-22T04:44:33.657Z,8.72
2022-12-22T04:46:13.426Z,8.76
2022-12-22T04:47:53.199Z,8.74
2022-12-22T04:49:32.960Z,8.74
2022-12-22T04:51:12.721Z,8.77
2022-12-22T04:52:52.497Z,8.72
2022-12-22T04:54:32.261Z,8.74
2022-12-22T04:56:12.030Z,8.76
2022-12-22T04:57:51.795Z,8.74
2022-12-22T04:59:31.544Z,8.77
2022-12-22T05:01:11.334Z,8.77
2022-12-22T05:02:51.079Z,8.75
2022-12-22T05:04:30.846Z,8.78
2022-12-22T05:06:10.612Z,8.78
2022-12-22T05:07:50.374Z,8.77
2022-12-22T05:09:30.138Z,8.76
2022-12-22T05:11:09.897Z,8.77
2022-12-22T05:12:49.664Z,8.76
2022-12-22T05:14:29.483Z,8.78
2022-12-22T05:16:09.205Z,8.79
2022-12-22T05:17:48.996Z,8.79
2022-12-22T05:19:28.743Z,8.77
2022-12-22T05:21:08.517Z,8.78
2022-12-22T05:22:48.270Z,8.8
2022-12-22T05:24:28.043Z,8.77
2022-12-22T05:26:07.808Z,8.8
2022-12-22T05:27:47.569Z,8.77
2022-12-22T05:29:27.343Z,8.78
2022-12-22T05:31:07.117Z,8.8
2022-12-22T05:32:46.864Z,8.81
2022-12-22T05:34:26.637Z,8.8
2022-12-22T05:36:06.410Z,8.79
2022-12-22T05:37:46.172Z,8.81
2022-12-22T05:39:25.932Z,8.79
2022-12-22T05:41:05.761Z,8.8
2022-12-22T05:42:45.490Z,8.81
2022-12-22T05:44:25.263Z,8.79
2022-12-22T05:46:05.019Z,8.8
2022-12-22T05:47:44.795Z,8.8
2022-12-22T05:49:24.550Z,8.83
2022-12-22T05:51:04.300Z,8.81
2022-12-22T05:52:44.088Z,8.83
2022-12-22T05:54:23.850Z,8.82
2022-12-22T05:56:03.692Z,8.83
2022-12-22T05:57:43.382Z,8.84
2022-12-22T05:59:23.155Z,8.81
2022-12-22T06:01:02.928Z,8.81
2022-12-22T06:02:42.679Z,8.84
2022-12-22T06:04:22.446Z,8.82
2022-12-22T06:06:02.264Z,8.82
2022-12-22T06:07:41.991Z,8.83
2022-12-22T06:09:21.814Z,8.84
2022-12-22T06:11:01.587Z,8.84
2022-12-22T06:12:41.297Z,8.82
2022-12-22T06:14:21.124Z,8.83
2022-12-22T06:16:00.837Z,8.83
2022-12-22T06:17:40.598Z,8.83
2022-12-22T06:19:20.351Z,8.85
2022-12-22T06:21:00.231Z,8.85
2022-12-22T06:22:39.950Z,8.85
2022-12-22T06:24:19.667Z,8.85
2022-12-22T06:25:59.539Z,8.85
2022-12-22T06:27:39.194Z,8.85
2022-12-22T06:29:18.964Z,8.87
2022-12-22T06:30:58.751Z,8.87
2022-12-22T06:32:38.559Z,8.85
2022-12-22T06:34:18.347Z,8.85
2022-12-22T06:35:58.026Z,8.88
2022-12-22T06:37:37.793Z,8.85
2022-12-22T06:39:17.581Z,8.88
2022-12-22T06:40:57.369Z,8.87
2022-12-22T06:42:37.099Z,8.89
2022-12-22T06:44:16.947Z,8.89
2022-12-22T06:45:56.678Z,8.87
2022-12-22T06:47:36.461Z,8.89
2022-12-22T06:49:16.254Z,8.91
2022-12-22T06:50:55.977Z,8.89
2022-12-22T06:52:35.766Z,8.89
2022-12-22T06:54:15.539Z,8.89
2022-12-22T06:55:55.361Z,8.92
2022-12-22T06:57:35.064Z,8.96
2022-12-22T06:59:14.815Z,8.97
2022-12-22T07:00:54.554Z,8.97
2022-12-22T07:02:34.308Z,9.03
2022-12-22T07:04:14.119Z,9.04
2022-12-22T07:05:53.948Z,9.13
2022-12-22T07:07:33.662Z,9.1
2022-12-22T07:09:13.366Z,9.14
2022-12-22T07:10:53.157Z,9.18
2022-12-22T07:12:32.909Z,9.21
2022-12-22T07:14:12.848Z,9.2
2022-12-22T07:15:52.430Z,9.25
2022-12-22T07:17:32.220Z,9.27
2022-12-22T07:19:12.028Z,9.3
2022-12-22T07:20:51.813Z,9.33
2022-12-22T07:22:31.519Z,9.35
2022-12-22T07:24:11.440Z,9.34
2022-12-22T07:25:51.114Z,9.38
2022-12-22T07:27:30.816Z,9.42
2022-12-22T07:29:10.606Z,9.41
2022-12-22T07:30:50.478Z,9.45
2022-12-22T07:32:30.178Z,9.46
2022-12-22T07:34:09.899Z,9.47
2022-12-22T07:35:49.697Z,9.5
2022-12-22T07:37:29.421Z,9.51
2022-12-22T07:39:09.206Z,9.55
2022-12-22T07:40:49.022Z,9.57
2022-12-22T07:42:28.741Z,9.59
2022-12-22T07:44:08.562Z,9.57
2022-12-22T07:45:48.277Z,9.62
2022-12-22T07:47:28.029Z,9.64
2022-12-22T07:49:07.861Z,9.64
2022-12-22T07:50:47.569Z,9.64
2022-12-22T07:52:27.393Z,9.64
2022-12-22T07:54:07.108Z,9.68
2022-12-22T07:55:46.884Z,9.7
2022-12-22T07:57:26.632Z,9.7
2022-12-22T07:59:06.412Z,9.7
2022-12-22T08:00:46.200Z,9.72
2022-12-22T08:02:26.049Z,9.72
2022-12-22T08:04:05.709Z,9.76
2022-12-22T08:05:45.681Z,9.79
2022-12-22T08:07:25.287Z,9.77
2022-12-22T08:09:05.166Z,9.83
2022-12-22T08:10:44.774Z,9.79
2022-12-22T08:12:24.671Z,9.82
2022-12-22T08:14:04.361Z,9.85
2022-12-22T08:15:44.238Z,9.87
2022-12-22T08:17:23.864Z,9.85
2022-12-22T08:19:03.751Z,9.88
2022-12-22T08:20:43.471Z,9.89
2022-12-22T08:22:23.164Z,9.89
2022-12-22T08:24:02.914Z,9.91
2022-12-22T08:25:42.781Z,9.91
2022-12-22T08:27:22.531Z,9.93
2022-12-22T08:29:02.310Z,9.93
2022-12-22T08:30:42.088Z,9.95
2022-12-22T08:32:21.826Z,9.99
2022-12-22T08:34:01.561Z,10
2022-12-22T08:35:41.402Z,10.01
2022-12-22T08:37:21.071Z,9.97
2022-12-22T08:39:00.846Z,10.03
2022-12-22T08:40:40.688Z,10
2022-12-22T08:42:20.471Z,10.05
2022-12-22T08:44:00.178Z,10.06
2022-12-22T08:45:39.915Z,10.03
2022-12-22T08:47:19.820Z,10.08
2022-12-22T08:48:59.465Z,10.08
2022-12-22T08:50:39.227Z,10.1
2022-12-22T08:52:19.012Z,10.09
2022-12-22T08:53:58.781Z,10.12
2022-12-22T08:55:38.557Z,10.12
2022-12-22T08:57:18.519Z,10.14
2022-12-22T08:58:58.098Z,10.14
2022-12-22T09:00:37.859Z,10.14
2022-12-22T09:02:17.620Z,10.17
2022-12-22T09:03:57.386Z,10.14
2022-12-22T09:05:37.160Z,10.17
2022-12-22T09:07:17.011Z,10.2
2022-12-22T09:08:56.702Z,10.2
2022-12-22T09:10:36.495Z,10.22
2022-12-22T09:12:16.281Z,10.21
2022-12-22T09:13:56.026Z,10.22
2022-12-22T09:15:35.793Z,10.22
2022-12-22T09:17:15.596Z,10.25
2022-12-22T09:18:55.329Z,10.24
2022-12-22T09:20:35.110Z,10.26
2022-12-22T09:22:14.948Z,10.28
2022-12-22T09:23:54.619Z,10.27
2022-12-22T09:25:34.371Z,10.32
2022-12-22T09:27:14.148Z,10.3
2022-12-22T09:28:53.925Z,10.34
2022-12-22T09:30:33.700Z,10.34
2022-12-22T09:32:13.468Z,10.34
2022-12-22T09:33:53.211Z,10.33
2022-12-22T09:35:33.013Z,10.37
2022-12-22T09:37:12.775Z,10.34
2022-12-22T09:38:52.656Z,10.34
2022-12-22T09:40:32.307Z,10.39
2022-12-22T09:42:12.186Z,10.36
2022-12-22T09:43:51.936Z,10.38
2022-12-22T09:45:31.691Z,10.38
2022-12-22T09:47:11.391Z,10.39
2022-12-22T09:48:51.243Z,10.41
2022-12-22T09:50:30.911Z,10.44
2022-12-22T09:52:10.762Z,10.42
2022-12-22T09:53:50.452Z,10.45
2022-12-22T09:55:30.244Z,10.45
2022-12-22T09:57:10.049Z,10.46
2022-12-22T09:58:49.761Z,10.46
2022-12-22T10:00:29.538Z,10.49
2022-12-22T10:02:09.307Z,10.48
2022-12-22T10:03:49.080Z,10.51
2022-12-22T10:05:28.841Z,10.51
2022-12-22T10:07:08.705Z,10.52
2022-12-22T10:08:48.395Z,10.53
2022-12-22T10:10:28.158Z,10.57
2022-12-22T10:12:07.925Z,10.54
2022-12-22T10:13:47.828Z,10.57
2022-12-22T10:15:27.473Z,10.57
2022-12-22T10:17:07.260Z,10.59
2022-12-22T10:18:47.065Z,10.6
2022-12-22T10:20:26.779Z,10.6
2022-12-22T10:22:06.543Z,10.6
2022-12-22T10:23:46.397Z,10.61
2022-12-22T10:25:26.092Z,10.63
2022-12-22T10:27:05.863Z,10.65
2022-12-22T10:28:45.652Z,10.66
2022-12-22T10:30:25.404Z,10.65
2022-12-22T10:32:05.169Z,10.67
2022-12-22T10:33:44.950Z,10.7
2022-12-22T10:35:24.701Z,10.68
2022-12-22T10:37:04.649Z,10.69
2022-12-22T10:38:44.255Z,10.71
2022-12-22T10:40:24.116Z,10.72
2022-12-22T10:42:03.793Z,10.7
2022-12-22T10:43:43.555Z,10.72
2022-12-22T10:45:23.331Z,10.74
2022-12-22T10:47:03.106Z,10.77
2022-12-22T10:48:42.863Z,10.76
2022-12-22T10:50:22.639Z,10.74
2022-12-22T10:52:02.432Z,10.76
2022-12-22T10:53:42.178Z,10.76
2022-12-22T10:55:21.949Z,10.77
2022-12-22T10:57:01.770Z,10.8
2022-12-22T10:58:41.485Z,10.8
2022-12-22T11:00:21.250Z,10.83
2022-12-22T11:02:01.029Z,10.83
2022-12-22T11:03:40.807Z,10.84
2022-12-22T11:05:20.571Z,10.84
2022-12-22T11:07:00.349Z,10.88
2022-12-22T11:08:40.103Z,10.86
2022-12-22T11:10:19.878Z,10.87
2022-12-22T11:11:59.659Z,10.89
2022-12-22T11:13:39.437Z,10.9
2022-12-22T11:15:19.180Z,10.9
2022-12-22T11:16:58.965Z,10.91
2022-12-22T11:18:38.722Z,10.91
2022-12-22T11:20:18.525Z,10.95
2022-12-22T11:21:58.267Z,10.95
2022-12-22T11:23:38.053Z,10.95
2022-12-22T11:25:17.819Z,10.93
2022-12-22T11:26:57.584Z,10.99
2022-12-22T11:28:37.361Z,10.99
2022-12-22T11:30:17.131Z,10.99
2022-12-22T11:31:56.888Z,11.02
2022-12-22T11:33:36.665Z,11.03
2022-12-22T11:35:16.425Z,11.02
2022-12-22T11:36:56.209Z,11.05
2022-12-22T11:38:35.970Z,11.03
2022-12-22T11:40:15.735Z,11.08
2022-12-22T11:41:55.509Z,11.06
2022-12-22T11:43:35.278Z,11.06
2022-12-22T11:45:15.062Z,11.09
2022-12-22T11:46:54.815Z,11.09
2022-12-22T11:48:34.595Z,11.09
2022-12-22T11:50:14.374Z,11.12
2022-12-22T11:51:54.127Z,11.12
2022-12-22T11:53:33.905Z,11.11
2022-12-22T11:55:13.765Z,11.14
2022-12-22T11:56:53.554Z,11.14
2022-12-22T11:58:33.264Z,11.13
2022-12-22T12:00:12.994Z,11.18
2022-12-22T12:01:52.782Z,11.17
2022-12-22T12:03:32.531Z,11.19
2022-12-22T12:05:12.315Z,11.2
2022-12-22T12:06:52.075Z,11.18
2022-12-22T12:08:31.846Z,11.21
2022-12-22T12:10:11.609Z,11.19
2022-12-22T12:11:51.379Z,11.22
2022-12-22T12:13:31.151Z,11.23
2022-12-22T12:15:10.906Z,11.27
2022-12-22T12:16:50.686Z,11.25
2022-12-22T12:18:30.466Z,11.27
2022-12-22T12:20:10.260Z,11.27
2022-12-22T12:21:49.985Z,11.27
2022-12-22T12:23:29.776Z,11.3
2022-12-22T12:25:09.529Z,11.3
2022-12-22T12:26:49.306Z,11.32
2022-12-22T12:28:29.093Z,11.34
2022-12-22T12:30:08.849Z,11.34
2022-12-22T12:31:48.626Z,11.34
2022-12-22T12:33:28.387Z,11.33
2022-12-22T12:35:08.155Z,11.34
2022-12-22T12:36:47.938Z,11.36
2022-12-22T12:38:27.690Z,11.39
2022-12-22T12:40:07.475Z,11.42
2022-12-22T12:41:47.260Z,11.4
2022-12-22T12:43:27.009Z,11.38
2022-12-22T12:45:06.772Z,11.42
2022-12-22T12:46:46.541Z,11.42
2022-12-22T12:48:26.322Z,11.46
2022-12-22T12:50:06.082Z,11.44
2022-12-22T12:51:45.884Z,11.47
2022-12-22T12:53:25.631Z,11.47
2022-12-22T12:55:05.390Z,11.46
2022-12-22T12:56:45.170Z,11.49
2022-12-22T12:58:24.942Z,11.49
2022-12-22T13:00:04.719Z,11.52
2022-12-22T13:01:44.495Z,11.5
2022-12-22T13:03:24.242Z,11.51
2022-12-22T13:05:04.028Z,11.51
2022-12-22T13:06:43.792Z,11.53
2022-12-22T13:08:23.572Z,11.53
2022-12-22T13:10:03.350Z,11.57
2022-12-22T13:11:43.111Z,11.56
2022-12-22T13:13:22.886Z,11.57
2022-12-22T13:15:02.640Z,11.58
2022-12-22T13:16:42.407Z,11.58
2022-12-22T13:18:22.171Z,11.57
2022-12-22T13:20:01.949Z,11.56
2022-12-22T13:21:41.719Z,11.59
2022-12-22T13:23:21.491Z,11.59
2022-12-22T13:25:01.387Z,11.58
2022-12-22T13:26:41.023Z,11.62
2022-12-22T13:28:20.800Z,11.62
2022-12-22T13:30:00.733Z,11.62
2022-12-22T13:31:40.519Z,11.63
2022-12-22T13:33:20.283Z,11.62
2022-12-22T13:34:59.891Z,11.64
2022-12-22T13:36:39.632Z,11.64
2022-12-22T13:38:19.515Z,11.63
2022-12-22T13:39:59.335Z,11.66
2022-12-22T13:41:39.090Z,11.65
2022-12-22T13:43:18.730Z,11.65
2022-12-22T13:44:58.542Z,11.69
2022-12-22T13:46:38.239Z,11.66
2022-12-22T13:48:18.017Z,11.69
2022-12-22T13:49:57.773Z,11.7
2022-12-22T13:51:37.595Z,11.72
2022-12-22T13:53:17.308Z,11.7
2022-12-22T13:54:57.090Z,11.75
2022-12-22T13:56:36.928Z,11.72
2022-12-22T13:58:16.635Z,11.75
2022-12-22T13:59:56.463Z,11.73
2022-12-22T14:01:36.393Z,11.76
2022-12-22T14:03:15.917Z,11.75
2022-12-22T14:04:55.719Z,11.75
2022-12-22T14:06:35.563Z,11.76
2022-12-22T14:08:15.386Z,11.76
2022-12-22T14:09:55.146Z,11.75
2022-12-22T14:11:34.806Z,11.78
2022-12-22T14:13:14.696Z,11.76
2022-12-22T14:14:54.376Z,11.77
2022-12-22T14:16:34.113Z,11.78
2022-12-22T14:18:13.906Z,11.8
2022-12-22T14:19:53.623Z,11.79
2022-12-22T14:21:33.358Z,11.82
2022-12-22T14:23:13.237Z,11.8
2022-12-22T14:24:52.894Z,11.82
2022-12-22T14:26:32.677Z,11.81
2022-12-22T14:28:12.433Z,11.84
2022-12-22T14:29:52.213Z,11.82
2022-12-22T14:31:31.963Z,11.83
2022-12-22T14:33:11.794Z,11.86
2022-12-22T14:34:51.515Z,11.83
2022-12-22T14:36:31.299Z,11.85
2022-12-22T14:38:11.073Z,11.87
2022-12-22T14:39:50.854Z,11.88
2022-12-22T14:41:30.584Z,11.86
2022-12-22T14:43:10.351Z,11.87
2022-12-22T14:44:50.182Z,11.84
2022-12-22T14:46:29.867Z,11.88
2022-12-22T14:48:09.641Z,11.86
2022-12-22T14:49:49.427Z,11.87
2022-12-22T14:51:29.188Z,11.89
2022-12-22T14:53:08.958Z,11.9
2022-12-22T14:54:48.712Z,11.89
2022-12-22T14:56:28.509Z,11.9
2022-12-22T14:58:08.300Z,11.92
2022-12-22T14:59:48.011Z,11.88
2022-12-22T15:01:27.799Z,11.88
2022-12-22T15:03:07.558Z,11.89
2022-12-22T15:04:47.320Z,11.91
2022-12-22T15:06:27.104Z,11.9
2022-12-22T15:08:06.863Z,11.9
2022-12-22T15:09:46.616Z,11.94
2022-12-22T15:11:26.392Z,11.94
2022-12-22T15:13:06.153Z,11.93
2022-12-22T15:14:45.998Z,11.92
2022-12-22T15:16:25.720Z,11.92
2022-12-22T15:18:05.472Z,11.88
2022-12-22T15:19:45.232Z,11.86
2022-12-22T15:21:25.013Z,11.85
2022-12-22T15:23:04.768Z,11.83
2022-12-22T15:24:44.536Z,11.8
2022-12-22T15:26:24.464Z,11.79
2022-12-22T15:28:04.059Z,11.77
2022-12-22T15:29:43.833Z,11.75
2022-12-22T15:31:23.588Z,11.72
2022-12-22T15:33:03.400Z,11.7
2022-12-22T15:34:43.136Z,11.69
2022-12-22T15:36:22.898Z,11.69
2022-12-22T15:38:02.694Z,11.66
2022-12-22T15:39:42.486Z,11.65
2022-12-22T15:41:22.278Z,11.65
2022-12-22T15:43:01.972Z,11.63
2022-12-22T15:44:41.760Z,11.63
2022-12-22T15:46:21.508Z,11.61
2022-12-22T15:48:01.281Z,11.6
2022-12-22T15:49:41.041Z,11.59
2022-12-22T15:51:20.809Z,11.57
2022-12-22T15:53:00.579Z,11.56
2022-12-22T15:54:40.358Z,11.57
2022-12-22T15:56:20.133Z,11.55
2022-12-22T15:57:59.886Z,11.54
2022-12-22T15:59:39.644Z,11.53
2022-12-22T16:01:19.400Z,11.53
2022-12-22T16:02:59.174Z,11.52
2022-12-22T16:04:38.959Z,11.52
2022-12-22T16:06:18.706Z,11.52
2022-12-22T16:07:58.494Z,11.48
2022-12-22T16:09:38.323Z,11.47
2022-12-22T16:11:18.073Z,11.47
2022-12-22T16:12:57.785Z,11.48
2022-12-22T16:14:37.574Z,11.46
2022-12-22T16:16:17.340Z,11.46
2022-12-22T16:17:57.095Z,11.47
2022-12-22T16:19:36.861Z,11.46
2022-12-22T16:21:16.657Z,11.44
2022-12-22T16:22:56.397Z,11.44
2022-12-22T16:24:36.169Z,11.42
2022-12-22T16:26:16.015Z,11.43
2022-12-22T16:27:55.695Z,11.41
2022-12-22T16:29:35.468Z,11.42
2022-12-22T16:31:15.215Z,11.4
2022-12-22T16:32:54.997Z,11.4
2022-12-22T16:34:34.758Z,11.4
2022-12-22T16:36:14.557Z,11.38
2022-12-22T16:37:54.297Z,11.39
2022-12-22T16:39:34.069Z,11.4
2022-12-22T16:41:13.884Z,11.4
2022-12-22T16:46:25.825Z,11.38
2022-12-22T16:46:33.816Z,11.38
2022-12-22T16:46:34.692Z,11.36
2022-12-22T16:47:52.916Z,11.38
2022-12-22T16:49:32.677Z,11.36
2022-12-22T16:51:12.473Z,11.36
2022-12-22T16:52:52.197Z,11.36
2022-12-22T16:54:31.966Z,11.35
2022-12-22T16:56:11.733Z,11.36
2022-12-22T16:57:51.505Z,11.35
2022-12-22T16:59:31.266Z,11.34
2022-12-22T17:01:11.034Z,11.32
2022-12-22T17:02:50.805Z,11.34
2022-12-22T17:04:30.595Z,11.34
2022-12-22T17:06:10.447Z,11.33
2022-12-22T17:07:50.114Z,11.33
2022-12-22T17:09:29.891Z,11.32
2022-12-22T17:11:09.670Z,11.32
2022-12-22T17:12:49.463Z,11.31
2022-12-22T17:14:29.300Z,11.31
2022-12-22T17:16:08.964Z,11.3
2022-12-22T17:17:48.927Z,11.28
2022-12-22T17:19:28.541Z,11.29
2022-12-22T17:21:08.247Z,11.27
2022-12-22T17:22:48.054Z,11.27
2022-12-22T17:24:27.769Z,11.27
2022-12-22T17:26:07.549Z,11.28
2022-12-22T17:27:47.302Z,11.27
2022-12-22T17:29:27.094Z,11.25
2022-12-22T17:31:06.852Z,11.24
2022-12-22T17:32:46.615Z,11.24
2022-12-22T17:34:26.377Z,11.24
2022-12-22T17:36:06.207Z,11.23
2022-12-22T17:37:45.907Z,11.22
2022-12-22T17:39:25.775Z,11.2
2022-12-22T17:41:05.476Z,11.21
2022-12-22T17:42:45.295Z,11.21
2022-12-22T17:44:25.035Z,11.18
2022-12-22T17:46:04.759Z,11.18
2022-12-22T17:47:44.516Z,11.18
2022-12-22T17:49:24.361Z,11.19
2022-12-22T17:51:04.102Z,11.16
2022-12-22T17:52:43.856Z,11.17
2022-12-22T17:54:23.592Z,11.14
2022-12-22T17:56:03.354Z,11.13
2022-12-22T17:57:43.118Z,11.13
2022-12-22T17:59:22.885Z,11.12
2022-12-22T18:01:02.667Z,11.12
2022-12-22T18:02:42.431Z,11.09
2022-12-22T18:04:22.206Z,11.1
2022-12-22T18:06:01.951Z,11.08
2022-12-22T18:07:41.728Z,11.07
2022-12-22T18:09:21.503Z,11.05
2022-12-22T18:11:01.256Z,11.06
2022-12-22T18:12:41.049Z,11.06
2022-12-22T18:14:20.907Z,11.05
2022-12-22T18:16:00.576Z,11.02
2022-12-22T18:17:40.336Z,11.01
2022-12-22T18:19:20.100Z,11.02
2022-12-22T18:20:59.867Z,11.01
2022-12-22T18:22:39.639Z,11
2022-12-22T18:24:19.470Z,10.98
2022-12-22T18:25:59.168Z,10.98
2022-12-22T18:27:38.938Z,10.96
2022-12-22T18:29:18.798Z,10.97
2022-12-22T18:30:58.460Z,10.96
2022-12-22T18:32:38.246Z,10.93
2022-12-22T18:34:18.021Z,10.94
2022-12-22T18:35:57.816Z,10.94
2022-12-22T18:37:37.537Z,10.9
2022-12-22T18:39:17.307Z,10.91
2022-12-22T18:40:57.068Z,10.9
2022-12-22T18:42:36.842Z,10.88
2022-12-22T18:44:16.605Z,10.89
2022-12-22T18:45:56.372Z,10.89
2022-12-22T18:47:36.197Z,10.85
2022-12-22T18:49:15.926Z,10.86
2022-12-22T18:50:55.667Z,10.85
2022-12-22T18:52:35.435Z,10.84
2022-12-22T18:54:15.207Z,10.82
2022-12-22T18:55:54.974Z,10.82
2022-12-22T18:57:34.743Z,10.81
2022-12-22T18:59:14.502Z,10.79
2022-12-22T19:00:54.304Z,10.79
2022-12-22T19:02:34.050Z,10.78
2022-12-22T19:04:13.922Z,10.77
2022-12-22T19:05:53.632Z,10.77
2022-12-22T19:07:33.352Z,10.75
2022-12-22T19:09:13.120Z,10.74
2022-12-22T19:10:52.929Z,10.75
2022-12-22T19:12:32.670Z,10.73
2022-12-22T19:14:12.429Z,10.74
2022-12-22T19:15:52.187Z,10.72
2022-12-22T19:17:31.979Z,10.7
2022-12-22T19:19:11.722Z,10.7
2022-12-22T19:20:51.505Z,10.67
2022-12-22T19:22:31.292Z,10.69
2022-12-22T19:24:11.026Z,10.66
2022-12-22T19:25:50.888Z,10.66
2022-12-22T19:27:30.587Z,10.65
2022-12-22T19:29:10.383Z,10.64
2022-12-22T19:30:50.095Z,10.63
2022-12-22T19:32:29.856Z,10.61
2022-12-22T19:34:09.613Z,10.61
2022-12-22T19:35:49.373Z,10.61
2022-12-22T19:37:29.161Z,10.61
2022-12-22T19:39:09.021Z,10.59
2022-12-22T19:40:48.775Z,10.56
2022-12-22T19:42:28.542Z,10.58
2022-12-22T19:44:08.253Z,10.55
2022-12-22T19:45:48.001Z,10.54
2022-12-22T19:47:27.783Z,10.53
2022-12-22T19:49:07.532Z,10.51
2022-12-22T19:50:47.292Z,10.52
2022-12-22T19:52:27.092Z,10.52
2022-12-22T19:54:06.915Z,10.49
2022-12-22T19:55:46.657Z,10.5
2022-12-22T19:57:26.458Z,10.49
2022-12-22T19:59:06.126Z,10.47
2022-12-22T20:00:45.917Z,10.48
2022-12-22T20:02:25.655Z,10.46
2022-12-22T20:04:05.415Z,10.46
2022-12-22T20:05:45.190Z,10.45
2022-12-22T20:07:24.949Z,10.42
2022-12-22T20:09:04.719Z,10.43
2022-12-22T20:10:44.488Z,10.41
2022-12-22T20:12:24.244Z,10.42
2022-12-22T20:14:04.011Z,10.41
2022-12-22T20:15:43.770Z,10.39
2022-12-22T20:17:23.539Z,10.38
2022-12-22T20:19:03.301Z,10.38
2022-12-22T20:20:43.106Z,10.36
2022-12-22T20:22:22.823Z,10.36
2022-12-22T20:24:02.598Z,10.32
2022-12-22T20:25:42.365Z,10.32
2022-12-22T20:27:22.255Z,10.32
2022-12-22T20:29:01.872Z,10.3
2022-12-22T20:30:41.651Z,10.29
2022-12-22T20:32:21.458Z,10.27
2022-12-22T20:34:01.199Z,10.29
2022-12-22T20:35:40.948Z,10.26
2022-12-22T20:37:20.709Z,10.24
2022-12-22T20:39:00.484Z,10.25
2022-12-22T20:40:40.324Z,10.22
2022-12-22T20:42:20.078Z,10.22
2022-12-22T20:43:59.770Z,10.2
2022-12-22T20:45:39.523Z,10.21
2022-12-22T20:47:19.288Z,10.18
2022-12-22T20:48:59.064Z,10.17
2022-12-22T20:50:38.812Z,10.17
2022-12-22T20:52:18.600Z,10.14
2022-12-22T20:53:58.360Z,10.14
2022-12-22T20:55:38.111Z,10.14
2022-12-22T20:57:17.904Z,10.14
2022-12-22T20:58:57.655Z,10.12
2022-12-22T21:00:37.417Z,10.09
2022-12-22T21:02:17.184Z,10.09
2022-12-22T21:03:56.924Z,10.07
2022-12-22T21:05:36.697Z,10.07
2022-12-22T21:07:16.463Z,10.04
2022-12-22T21:08:56.232Z,10.06
2022-12-22T21:10:36.049Z,10.05
2022-12-22T21:12:15.753Z,10.02
2022-12-22T21:13:55.542Z,10.01
2022-12-22T21:15:35.313Z,10
2022-12-22T21:17:15.217Z,9.97
2022-12-22T21:18:54.836Z,10
2022-12-22T21:20:34.665Z,9.97
2022-12-22T21:22:14.359Z,9.97
2022-12-22T21:23:54.135Z,9.96
2022-12-22T21:25:33.897Z,9.93
2022-12-22T21:27:13.663Z,9.93
2022-12-22T21:28:53.426Z,9.93
2022-12-22T21:30:33.193Z,9.93
2022-12-22T21:32:12.970Z,9.89
2022-12-22T21:33:52.722Z,9.89
2022-12-22T21:35:32.509Z,9.88
2022-12-22T21:37:12.347Z,9.88
2022-12-22T21:38:52.033Z,9.85
2022-12-22T21:40:31.830Z,9.85
2022-12-22T21:42:11.625Z,9.84
2022-12-22T21:43:51.346Z,9.85
2022-12-22T21:45:31.096Z,9.83
2022-12-22T21:47:10.861Z,9.82